Time;durP1;ratioP1;P1;durP2;ratioP2;P2;SDS_P1;SDS_P2;PMS_P1;PMS_P2;Temp;Humidity;BMP_temperature;BMP_pressure;BME280_temperature;BME280_humidity;BME280_pressure;Samples;Min_cycle;Max_cycle;Signal;HPM_P1;HPM_P2
2021/12/12 00:01:43;;;;;;;;;12.40;11.60;;;;;7.39;76.07;101653.06;4998795;28;45406;-65
2021/12/12 00:04:13;;;;;;;;;14.40;12.60;;;;;7.29;76.63;101633.22;5015572;28;45666;-61
2021/12/12 00:06:54;;;;;;;;;18.60;11.20;;;;;7.52;76.96;101665.38;5015100;28;45776;-62
2021/12/12 00:09:31;;;;;;;;;18.00;13.80;;;;;7.52;76.53;101668.94;4998624;28;45441;-61
2021/12/12 00:11:57;;;;;;;;;18.20;16.40;;;;;7.53;76.62;101658.88;4981346;28;45429;-56
2021/12/12 00:14:29;;;;;;;;;12.50;12.50;;;;;7.51;76.96;101663.63;4997814;28;45396;-62
2021/12/12 00:16:55;;;;;;;;;14.20;11.40;;;;;7.52;76.73;101660.72;5014960;28;45577;-60
2021/12/12 00:19:21;;;;;;;;;17.80;16.00;;;;;7.50;77.17;101660.06;5015327;28;45236;-56
2021/12/12 00:21:50;;;;;;;;;19.00;14.80;;;;;7.51;77.32;101658.16;5015432;28;45389;-61
2021/12/12 00:24:15;;;;;;;;;17.20;14.60;;;;;7.42;77.52;101641.78;5004925;28;45718;-56
2021/12/12 00:26:42;;;;;;;;;25.50;18.75;;;;;7.47;77.65;101649.44;4995811;28;45715;-61
2021/12/12 00:29:08;;;;;;;;;16.20;14.80;;;;;7.38;77.74;101640.41;4997164;28;45506;-60
2021/12/12 00:31:33;;;;;;;;;22.20;18.40;;;;;7.38;77.75;101658.66;5015229;28;45632;-60
2021/12/12 00:33:59;;;;;;;;;14.25;14.25;;;;;7.40;78.15;101657.47;4997685;28;45328;-59
2021/12/12 00:36:25;;;;;;;;;19.80;18.80;;;;;7.36;78.32;101661.56;5014970;28;46610;-58
2021/12/12 00:38:56;;;;;;;;;19.20;14.40;;;;;7.23;78.31;101640.22;4996950;28;45480;-59
2021/12/12 00:41:49;;;;;;;;;12.80;10.00;;;;;7.40;78.42;101659.34;4997632;28;45670;-54
2021/12/12 00:44:14;;;;;;;;;17.20;15.20;;;;;7.24;78.55;101624.66;5014022;28;45544;-60
2021/12/12 00:46:40;;;;;;;;;14.25;13.75;;;;;7.44;78.45;101658.00;4996829;28;47938;-58
2021/12/12 00:49:06;;;;;;;;;18.50;15.50;;;;;7.45;78.12;101657.84;5014876;28;45427;-54
2021/12/12 00:51:33;;;;;;;;;19.00;18.00;;;;;7.45;78.62;101655.09;4996923;28;45443;-62
2021/12/12 00:53:59;;;;;;;;;19.00;17.00;;;;;7.28;78.58;101626.06;5014692;28;45524;-61
2021/12/12 00:56:24;;;;;;;;;19.00;15.25;;;;;7.45;78.40;101657.84;5014939;28;45991;-56
2021/12/12 00:58:50;;;;;;;;;17.75;15.00;;;;;7.48;78.63;101658.50;5014901;28;45382;-59
2021/12/12 01:01:19;;;;;;;;;12.00;11.00;;;;;7.29;78.31;101630.50;4996718;28;45388;-60
2021/12/12 01:03:54;;;;;;;;;18.60;15.00;;;;;7.46;78.56;101653.22;5015355;28;45370;-58
2021/12/12 01:06:20;;;;;;;;;18.40;15.40;;;;;7.07;78.86;101580.09;5014191;28;46157;-55
2021/12/12 01:08:46;;;;;;;;;16.00;15.50;;;;;7.50;78.58;101638.22;4996823;28;45415;-61
2021/12/12 01:11:16;;;;;;;;;16.00;13.75;;;;;7.52;78.66;101638.03;5014663;28;45401;-59
2021/12/12 01:13:42;;;;;;;;;16.20;13.00;;;;;7.36;78.77;101611.56;5015029;28;45318;-55
2021/12/12 01:16:21;;;;;;;;;15.75;14.00;;;;;7.52;78.84;101638.03;4998313;28;47688;-60
2021/12/12 01:18:52;;;;;;;;;14.20;11.80;;;;;7.54;79.06;101635.97;5002615;28;46104;-59
2021/12/12 01:21:27;;;;;;;;;16.20;12.00;;;;;7.55;78.68;101637.69;5017916;28;45584;-59
2021/12/12 01:23:59;;;;;;;;;12.20;10.80;;;;;7.57;78.57;101633.78;5018521;28;45340;-61
2021/12/12 01:26:27;;;;;;;;;12.20;11.40;;;;;7.56;79.37;101643.00;4984116;28;46737;-59
2021/12/12 01:28:54;;;;;;;;;15.40;12.60;;;;;7.57;78.75;101627.44;5016737;28;45606;-59
2021/12/12 01:31:24;;;;;;;;;9.80;9.80;;;;;7.57;79.43;101639.22;5016588;28;45412;-61
2021/12/12 01:33:58;;;;;;;;;14.20;10.40;;;;;7.57;79.00;101650.16;5018580;28;45196;-62
2021/12/12 01:36:27;;;;;;;;;10.80;9.80;;;;;7.58;79.15;101640.09;5016106;28;45915;-57
2021/12/12 01:38:56;;;;;;;;;11.60;11.60;;;;;7.56;79.57;101640.25;4999039;28;45603;-59
2021/12/12 01:41:26;;;;;;;;;14.20;14.20;;;;;7.57;79.12;101647.44;5014848;28;45522;-61
2021/12/12 01:43:53;;;;;;;;;11.00;11.00;;;;;7.60;79.29;101652.53;5014540;28;46008;-59
2021/12/12 01:46:21;;;;;;;;;10.20;10.20;;;;;7.56;79.43;101650.31;4999593;28;48245;-55
2021/12/12 01:48:56;;;;;;;;;10.00;9.00;;;;;7.53;79.34;101645.22;5017941;28;45330;-61
2021/12/12 01:51:22;;;;;;;;;11.40;7.80;;;;;7.61;79.52;101653.41;5016074;28;45255;-61
2021/12/12 01:53:48;;;;;;;;;11.50;11.00;;;;;7.52;79.57;101643.50;5018178;28;45306;-56
2021/12/12 01:56:18;;;;;;;;;13.00;11.60;;;;;7.63;79.15;101661.44;5017410;28;46562;-53
2021/12/12 01:58:45;;;;;;;;;12.80;9.80;;;;;7.64;79.87;101661.28;5017408;28;45376;-62
2021/12/12 02:01:14;;;;;;;;;11.20;9.20;;;;;7.64;79.66;101666.75;5017590;28;45897;-59
2021/12/12 02:03:42;;;;;;;;;14.80;10.00;;;;;7.49;79.54;101638.38;5017197;28;45362;-60
2021/12/12 02:06:09;;;;;;;;;15.00;15.00;;;;;7.65;80.01;101679.38;5016821;28;45558;-61
2021/12/12 02:08:35;;;;;;;;;10.40;8.00;;;;;7.62;79.90;101665.19;4982485;28;45478;-62
2021/12/12 02:11:05;;;;;;;;;13.75;11.75;;;;;7.64;79.87;101671.34;5016126;28;45433;-59
2021/12/12 02:13:32;;;;;;;;;11.00;9.40;;;;;7.45;79.94;101640.59;5017196;28;45173;-61
2021/12/12 02:15:59;;;;;;;;;8.60;8.60;;;;;7.69;79.47;101685.34;4999099;28;45714;-61
2021/12/12 02:18:28;;;;;;;;;10.80;7.80;;;;;7.62;80.16;101668.78;5015653;28;45468;-60
2021/12/12 02:21:20;;;;;;;;;9.40;9.40;;;;;7.49;79.55;101647.44;5011649;28;45230;-62
2021/12/12 02:37:29;;;;;;;;;9.20;8.40;;;;;7.68;80.21;101691.84;4982008;28;45404;-58
2021/12/12 02:39:55;;;;;;;;;7.60;7.60;;;;;7.70;79.77;101696.09;4996687;28;45393;-61
2021/12/12 02:42:22;;;;;;;;;6.75;6.00;;;;;7.53;80.34;101667.06;4996788;28;45489;-62
2021/12/12 02:44:49;;;;;;;;;10.00;9.20;;;;;7.71;80.16;101694.22;4997343;28;45513;-60
2021/12/12 02:47:18;;;;;;;;;5.20;5.20;;;;;7.69;80.31;101699.03;4996520;28;46178;-61
2021/12/12 02:52:22;;;;;;;;;14.00;11.40;;;;;7.08;80.57;101596.31;5016457;28;45292;-58
2021/12/12 02:54:48;;;;;;;;;9.80;7.00;;;;;7.55;80.55;101676.81;5016774;28;45458;-61
2021/12/12 02:57:14;;;;;;;;;12.75;12.75;;;;;7.79;80.48;101707.06;4981950;28;45350;-60
2021/12/12 02:59:40;;;;;;;;;6.60;6.00;;;;;7.79;80.74;101702.44;4998654;28;45417;-59
2021/12/12 03:02:08;;;;;;;;;10.00;8.60;;;;;7.77;80.59;101692.69;4983551;28;46105;-57
2021/12/12 03:04:33;;;;;;;;;8.40;7.00;;;;;7.80;80.13;101695.09;4993721;28;45391;-58
2021/12/12 03:06:59;;;;;;;;;7.75;7.00;;;;;7.79;80.48;101699.69;5015956;28;46088;-59
2021/12/12 03:09:30;;;;;;;;;5.50;5.00;;;;;7.83;80.76;101706.53;4996255;28;45546;-56
2021/12/12 03:11:58;;;;;;;;;7.60;7.60;;;;;7.82;80.58;101704.84;5014257;28;45367;-59
2021/12/12 03:14:24;;;;;;;;;5.80;5.80;;;;;7.84;81.07;101712.84;5015884;28;45651;-56
2021/12/12 03:16:50;;;;;;;;;7.75;6.00;;;;;7.75;81.17;101692.00;4992529;28;46495;-62
2021/12/12 03:19:19;;;;;;;;;6.00;6.00;;;;;7.84;80.17;101707.38;5014879;28;45399;-58
2021/12/12 03:21:45;;;;;;;;;9.40;7.40;;;;;7.80;80.65;101715.06;4999027;28;45201;-60
2021/12/12 03:24:22;;;;;;;;;6.80;5.80;;;;;7.79;80.57;101707.88;5013336;28;45669;-61
2021/12/12 03:26:50;;;;;;;;;6.00;6.00;;;;;7.85;80.42;101709.13;5016161;28;46463;-59
2021/12/12 03:29:15;;;;;;;;;3.80;3.80;;;;;7.88;80.52;101716.97;5015337;28;45486;-58
2021/12/12 03:31:45;;;;;;;;;5.75;5.75;;;;;7.83;80.36;101697.47;5016127;28;45437;-61
2021/12/12 03:34:13;;;;;;;;;8.60;6.80;;;;;7.73;80.58;101682.09;5016081;28;45585;-62
2021/12/12 03:36:39;;;;;;;;;6.40;5.00;;;;;7.92;80.69;101704.66;5016039;28;46498;-58
2021/12/12 03:39:09;;;;;;;;;6.75;5.00;;;;;7.91;80.28;101705.69;5014809;28;45375;-61
2021/12/12 03:41:35;;;;;;;;;6.40;6.00;;;;;7.92;80.19;101704.66;4998232;28;45440;-60
2021/12/12 03:44:05;;;;;;;;;6.25;6.25;;;;;7.92;80.39;101704.66;5016027;28;45293;-60
2021/12/12 03:46:32;;;;;;;;;7.40;6.00;;;;;7.86;79.98;101686.22;4998041;28;47656;-61
2021/12/12 03:48:57;;;;;;;;;5.60;5.20;;;;;7.96;80.27;101711.47;4997843;28;45434;-57
2021/12/12 03:51:24;;;;;;;;;5.00;5.00;;;;;7.96;80.07;101714.22;5015411;28;45261;-60
2021/12/12 03:53:50;;;;;;;;;6.00;6.00;;;;;7.99;80.78;101719.34;5015936;28;45685;-57
2021/12/12 03:56:16;;;;;;;;;9.25;7.50;;;;;8.02;79.81;101712.69;5015613;28;46558;-57
2021/12/12 03:58:41;;;;;;;;;9.25;5.50;;;;;8.04;79.79;101707.03;4997654;28;45382;-61
2021/12/12 04:01:08;;;;;;;;;11.75;9.00;;;;;8.03;80.54;101710.81;4997486;28;45320;-61
2021/12/12 04:03:34;;;;;;;;;8.40;7.40;;;;;8.05;80.34;101711.50;5014373;28;45545;-62
2021/12/12 04:06:04;;;;;;;;;7.25;7.00;;;;;8.04;80.18;101713.38;4997958;28;46503;-59
2021/12/12 04:08:33;;;;;;;;;12.60;7.00;;;;;8.03;80.21;101700.72;4981816;28;45211;-61
2021/12/12 04:10:59;;;;;;;;;8.40;8.40;;;;;7.85;80.37;101668.94;4998097;28;45412;-59
2021/12/12 04:13:24;;;;;;;;;6.75;6.75;;;;;8.06;80.39;101705.84;4998042;28;45467;-62
2021/12/12 04:15:54;;;;;;;;;13.50;8.75;;;;;8.05;80.34;101716.97;4997503;28;47297;-60
2021/12/12 04:18:25;;;;;;;;;11.00;8.60;;;;;7.96;80.19;101705.19;4997384;28;45351;-56
2021/12/12 04:20:51;;;;;;;;;6.20;6.20;;;;;8.07;80.24;101717.66;5014041;28;45365;-56
2021/12/12 04:23:17;;;;;;;;;6.80;6.80;;;;;8.08;80.69;101719.34;4998172;28;45424;-55
2021/12/12 04:25:43;;;;;;;;;11.40;9.40;;;;;8.09;79.79;101729.25;4997279;28;48860;-61
2021/12/12 04:28:08;;;;;;;;;15.25;10.25;;;;;8.08;81.21;101725.69;5015193;28;45359;-59
2021/12/12 04:30:34;;;;;;;;;13.00;9.75;;;;;8.10;80.91;101729.09;4997374;28;45276;-59
2021/12/12 04:32:59;;;;;;;;;11.25;10.50;;;;;7.89;80.23;101688.59;4998242;28;45312;-60
2021/12/12 04:35:25;;;;;;;;;8.00;7.00;;;;;8.13;80.36;101739.69;4980947;28;45433;-57
2021/12/12 04:37:52;;;;;;;;;11.80;10.60;;;;;8.11;80.90;101728.06;4997345;28;45405;-54
2021/12/12 04:40:19;;;;;;;;;12.00;11.40;;;;;7.91;80.55;101702.97;5015266;28;45378;-59
2021/12/12 04:42:45;;;;;;;;;11.20;8.20;;;;;8.14;79.95;101738.69;4996996;28;45372;-58
2021/12/12 04:45:43;;;;;;;;;7.60;7.60;;;;;8.16;80.38;101737.66;4997048;28;45788;-60
2021/12/12 04:51:21;;;;;;;;;10.60;8.20;;;;;8.19;80.07;101737.28;5015053;28;45276;-55
2021/12/12 04:54:07;;;;;;;;;12.40;10.80;;;;;8.20;80.31;101742.59;4980708;28;45428;-59
2021/12/12 04:56:47;;;;;;;;;13.60;11.40;;;;;8.19;80.21;101754.56;4996628;28;48054;-63
2021/12/12 04:59:41;;;;;;;;;16.00;12.40;;;;;8.02;80.44;101731.84;5013292;28;45521;-61
2021/12/12 05:02:18;;;;;;;;;13.40;9.80;;;;;8.04;80.35;101728.91;4999150;28;45426;-55
2021/12/12 05:04:52;;;;;;;;;16.20;11.00;;;;;8.18;80.97;101749.25;5014768;28;45383;-61
2021/12/12 05:07:55;;;;;;;;;14.00;14.00;;;;;8.16;80.82;101754.06;4996641;28;45619;-60
2021/12/12 05:10:46;;;;;;;;;14.80;14.80;;;;;8.15;81.44;101753.19;4953418;28;45381;-60
2021/12/12 05:13:16;;;;;;;;;14.00;12.20;;;;;8.12;81.00;101746.19;4984070;28;45651;-55
2021/12/12 05:15:46;;;;;;;;;10.00;8.40;;;;;8.21;81.13;101747.03;4980978;28;45382;-61
2021/12/12 05:18:19;;;;;;;;;10.80;10.60;;;;;8.13;80.95;101749.78;5014468;28;46746;-56
2021/12/12 05:20:49;;;;;;;;;11.60;11.60;;;;;8.20;80.75;101758.13;4980844;28;45383;-59
2021/12/12 05:23:16;;;;;;;;;14.80;12.40;;;;;8.23;81.14;101761.38;5013657;28;45220;-60
2021/12/12 05:25:55;;;;;;;;;14.20;14.00;;;;;8.21;80.85;101755.25;5014778;28;45514;-58
2021/12/12 05:28:24;;;;;;;;;11.60;9.20;;;;;8.26;81.26;101761.06;4997572;28;45526;-60
2021/12/12 05:30:49;;;;;;;;;11.20;11.00;;;;;8.25;81.52;101764.81;5014341;28;45236;-54
2021/12/12 05:33:15;;;;;;;;;11.50;10.50;;;;;8.04;81.59;101727.03;4997047;28;45293;-56
2021/12/12 05:35:41;;;;;;;;;14.25;12.25;;;;;8.27;80.91;101768.22;4996968;28;45406;-60
2021/12/12 05:38:07;;;;;;;;;20.00;14.50;;;;;8.25;81.25;101772.16;5014238;28;45948;-60
2021/12/12 05:40:34;;;;;;;;;17.60;10.40;;;;;7.99;81.52;101721.22;4980176;28;45362;-56
2021/12/12 05:43:00;;;;;;;;;19.00;13.80;;;;;8.27;82.09;101770.97;4996836;28;45513;-58
2021/12/12 05:45:30;;;;;;;;;15.00;14.40;;;;;8.25;81.44;101773.03;4996660;28;45524;-59
2021/12/12 05:47:55;;;;;;;;;16.80;13.00;;;;;8.29;81.48;101781.75;5012742;28;45827;-56
2021/12/12 05:50:22;;;;;;;;;13.00;13.00;;;;;8.32;81.53;101786.03;5014221;28;45383;-52
2021/12/12 05:52:47;;;;;;;;;15.60;12.60;;;;;8.33;81.05;101782.25;5013165;28;45392;-58
2021/12/12 05:55:14;;;;;;;;;16.25;11.25;;;;;8.36;81.52;101784.63;4996530;28;45362;-62
2021/12/12 05:57:43;;;;;;;;;15.20;11.20;;;;;8.34;81.06;101783.97;5014295;28;45410;-59
2021/12/12 06:00:11;;;;;;;;;12.80;10.80;;;;;8.38;80.94;101791.66;4992660;28;45383;-61
2021/12/12 06:02:37;;;;;;;;;11.80;11.80;;;;;8.37;80.55;101784.47;5011855;28;45423;-60
2021/12/12 06:05:02;;;;;;;;;12.00;11.50;;;;;8.43;80.75;101793.84;4996271;28;45325;-58
2021/12/12 06:07:28;;;;;;;;;13.00;13.00;;;;;8.36;81.16;101781.91;4995885;28;46709;-59
2021/12/12 06:09:54;;;;;;;;;13.40;13.20;;;;;8.27;81.28;101767.38;4979938;28;45464;-60
2021/12/12 06:12:20;;;;;;;;;11.75;10.75;;;;;8.40;81.82;101781.38;4996238;28;45474;-58
2021/12/12 06:14:45;;;;;;;;;17.00;12.50;;;;;8.28;81.64;101764.47;4996331;28;46026;-59
2021/12/12 06:17:12;;;;;;;;;11.25;11.25;;;;;8.41;80.79;101793.19;5012326;28;46143;-59
2021/12/12 06:19:38;;;;;;;;;13.60;13.60;;;;;8.43;81.19;101809.44;4992239;28;45469;-62
2021/12/12 06:22:04;;;;;;;;;14.00;11.75;;;;;7.97;80.88;101737.81;4976671;28;45504;-62
2021/12/12 06:24:30;;;;;;;;;14.00;10.75;;;;;8.43;80.81;101803.97;4976351;28;45367;-58
2021/12/12 06:26:56;;;;;;;;;13.60;11.60;;;;;8.47;81.32;101808.91;4977794;28;45390;-55
2021/12/12 06:29:22;;;;;;;;;17.40;12.40;;;;;8.48;81.46;101809.78;4977131;28;45304;-56
2021/12/12 06:31:49;;;;;;;;;10.75;10.75;;;;;8.41;81.11;101798.66;4992829;28;45418;-59
2021/12/12 06:34:15;;;;;;;;;10.80;7.80;;;;;8.24;81.23;101786.88;4977710;28;45371;-62
2021/12/12 06:36:40;;;;;;;;;10.75;10.75;;;;;8.45;81.34;101821.94;4975744;28;46036;-58
2021/12/12 06:39:08;;;;;;;;;8.50;8.25;;;;;8.41;81.58;101821.41;4977547;28;45459;-60
2021/12/12 06:41:34;;;;;;;;;11.80;8.60;;;;;8.36;82.07;101812.00;4976932;28;45506;-59
2021/12/12 06:44:05;;;;;;;;;15.60;14.60;;;;;8.41;82.16;101818.69;4976326;28;45662;-53
2021/12/12 06:46:30;;;;;;;;;8.00;7.00;;;;;8.41;81.50;101817.81;4975191;28;47382;-53
2021/12/12 06:48:57;;;;;;;;;10.75;9.75;;;;;8.41;82.09;101818.69;4978210;28;45381;-59
2021/12/12 06:51:25;;;;;;;;;12.20;10.20;;;;;8.36;81.83;101820.19;4995179;28;45439;-59
2021/12/12 06:53:51;;;;;;;;;9.20;9.20;;;;;8.25;82.06;101799.50;4995657;28;45320;-59
2021/12/12 06:56:17;;;;;;;;;13.75;12.00;;;;;8.45;82.48;101838.34;4995248;28;45357;-59
2021/12/12 06:58:43;;;;;;;;;10.60;8.40;;;;;8.28;81.52;101819.16;4996394;28;45390;-57
2021/12/12 07:01:12;;;;;;;;;10.50;10.50;;;;;8.39;81.78;101842.59;4995481;28;45336;-58
2021/12/12 07:03:38;;;;;;;;;18.80;10.40;;;;;8.47;81.61;101844.47;4995452;28;45384;-55
2021/12/12 07:06:03;;;;;;;;;13.50;13.50;;;;;8.30;82.21;101813.53;5011330;28;46440;-60
2021/12/12 07:08:29;;;;;;;;;10.00;7.50;;;;;8.49;81.67;101849.78;5011107;28;45386;-59
2021/12/12 07:10:55;;;;;;;;;9.75;9.50;;;;;8.49;82.15;101853.38;4995138;28;45380;-62
2021/12/12 07:13:21;;;;;;;;;11.50;8.50;;;;;8.47;82.35;101858.16;4995973;28;45295;-60
2021/12/12 07:15:48;;;;;;;;;14.75;7.75;;;;;8.59;82.59;101860.59;4994916;28;45680;-52
2021/12/12 07:18:16;;;;;;;;;10.00;9.60;;;;;7.95;82.14;101752.69;5011524;28;45610;-56
2021/12/12 07:20:42;;;;;;;;;12.60;11.20;;;;;8.39;82.14;101822.59;4995864;28;45401;-52
2021/12/12 07:23:09;;;;;;;;;9.40;9.20;;;;;8.34;82.27;101825.00;4996752;28;45515;-61
2021/12/12 07:25:34;;;;;;;;;8.40;8.40;;;;;8.59;82.55;101860.59;4994666;28;46176;-61
2021/12/12 07:28:00;;;;;;;;;13.00;8.00;;;;;8.60;82.00;101868.63;4958858;28;45861;-60
2021/12/12 07:30:26;;;;;;;;;9.75;8.00;;;;;8.58;82.55;101862.47;4996384;28;45620;-61
2021/12/12 07:32:52;;;;;;;;;13.20;11.40;;;;;8.62;82.34;101865.72;4994591;28;45582;-56
2021/12/12 07:35:17;;;;;;;;;10.50;6.25;;;;;8.63;81.51;101872.91;4994924;28;45417;-59
2021/12/12 07:37:43;;;;;;;;;10.25;7.50;;;;;8.63;81.67;101872.91;4994576;28;45257;-59
2021/12/12 07:40:09;;;;;;;;;10.50;10.50;;;;;8.63;82.42;101878.38;4995898;28;45161;-57
2021/12/12 07:42:35;;;;;;;;;11.60;9.00;;;;;8.60;82.43;101878.72;4995108;28;45353;-54
2021/12/12 07:45:01;;;;;;;;;10.25;8.50;;;;;8.61;82.25;101866.75;4994583;28;45826;-61
2021/12/12 07:47:28;;;;;;;;;12.25;12.00;;;;;8.63;82.00;101873.75;5011444;28;46262;-61
2021/12/12 07:49:54;;;;;;;;;13.20;11.80;;;;;8.59;81.32;101869.66;4975000;28;45395;-61
2021/12/12 07:52:22;;;;;;;;;15.00;10.00;;;;;8.43;82.29;101848.56;4977058;28;45213;-55
2021/12/12 07:54:49;;;;;;;;;10.80;10.20;;;;;8.49;82.53;101849.78;4976403;28;46424;-54
2021/12/12 07:57:15;;;;;;;;;14.60;12.20;;;;;8.70;81.45;101881.28;4976429;28;45478;-55
2021/12/12 07:59:41;;;;;;;;;13.25;7.00;;;;;8.73;82.30;101886.41;4977451;28;45486;-62
2021/12/12 08:02:06;;;;;;;;;16.20;11.60;;;;;8.72;82.03;101882.84;4995538;28;45483;-60
2021/12/12 08:04:34;;;;;;;;;11.50;9.00;;;;;8.65;81.77;101870.88;4978029;28;45349;-57
2021/12/12 08:07:00;;;;;;;;;2.00;2.00;;;;;8.69;81.86;101880.44;4961949;28;45432;-61
2021/12/12 08:09:29;;;;;;;;;13.00;11.20;;;;;8.76;82.25;101897.03;4962609;28;45410;-56
2021/12/12 08:11:54;;;;;;;;;10.60;10.40;;;;;8.64;82.27;101870.00;4962706;28;45557;-55
2021/12/12 08:14:22;;;;;;;;;10.00;6.50;;;;;8.78;82.16;101897.72;4978101;28;45610;-57
2021/12/12 08:16:48;;;;;;;;;9.40;8.20;;;;;8.75;82.29;101885.22;4943720;28;45837;-55
2021/12/12 08:19:14;;;;;;;;;72.40;56.40;;;;;8.80;81.88;101880.09;4981506;28;45545;-52
2021/12/12 08:21:39;;;;;;;;;13.75;11.50;;;;;8.92;81.94;101894.28;4981799;28;45378;-59
2021/12/12 08:24:09;;;;;;;;;7.75;7.75;;;;;8.98;81.18;101892.75;5013716;28;46310;-61
2021/12/12 08:26:36;;;;;;;;;5.20;4.40;;;;;9.02;81.41;101896.81;4989781;28;45435;-57
2021/12/12 08:29:05;;;;;;;;;10.20;10.20;;;;;9.00;81.29;101890.69;5007226;28;45462;-52
2021/12/12 08:31:30;;;;;;;;;11.00;8.40;;;;;9.07;81.90;101899.91;5013616;28;45473;-55
2021/12/12 08:33:56;;;;;;;;;9.75;9.75;;;;;9.09;81.46;101897.84;4981284;28;45630;-53
2021/12/12 08:36:22;;;;;;;;;6.50;6.50;;;;;9.12;81.44;101901.28;4997177;28;45431;-56
2021/12/12 08:38:47;;;;;;;;;7.75;7.75;;;;;8.80;81.09;101849.09;4994225;28;45461;-56
2021/12/12 08:41:13;;;;;;;;;7.00;7.00;;;;;9.12;81.30;101906.75;4995305;28;45357;-57
2021/12/12 08:43:39;;;;;;;;;7.25;7.25;;;;;9.05;81.19;101898.38;4994189;28;45398;-55
2021/12/12 08:46:07;;;;;;;;;11.00;10.80;;;;;9.04;80.98;101892.06;4961201;28;46262;-54
2021/12/12 08:48:36;;;;;;;;;8.60;6.80;;;;;9.16;80.56;101906.22;4995299;28;45367;-56
2021/12/12 08:51:08;;;;;;;;;11.80;8.60;;;;;9.15;80.91;101899.03;5007036;28;45789;-55
2021/12/12 08:53:33;;;;;;;;;9.80;8.00;;;;;9.26;81.07;101919.75;4997062;28;46471;-58
2021/12/12 08:55:59;;;;;;;;;8.25;7.00;;;;;9.30;80.83;101910.16;5013810;28;45446;-57
2021/12/12 08:58:28;;;;;;;;;13.50;11.50;;;;;9.33;80.39;101918.00;5014853;28;45327;-55
2021/12/12 09:01:05;;;;;;;;;11.00;6.60;;;;;9.34;80.07;101921.63;4995138;28;45612;-56
2021/12/12 09:03:38;;;;;;;;;9.80;9.00;;;;;9.34;80.28;101911.50;5011307;28;46618;-56
2021/12/12 09:06:05;;;;;;;;;8.60;8.60;;;;;9.36;81.24;101922.28;4994023;28;45542;-54
2021/12/12 09:08:58;;;;;;;;;5.80;5.80;;;;;9.33;79.93;101920.75;4982932;28;45639;-59
2021/12/12 09:11:29;;;;;;;;;10.40;8.80;;;;;9.40;80.66;101925.53;5017445;28;45599;-51
2021/12/12 09:14:00;;;;;;;;;8.20;7.20;;;;;9.45;80.60;101934.09;4989011;28;45443;-55
2021/12/12 09:16:35;;;;;;;;;7.80;5.60;;;;;9.48;80.20;101939.19;4988440;28;45568;-57
2021/12/12 09:19:04;;;;;;;;;9.40;7.80;;;;;9.52;79.93;101940.56;4990674;28;45787;-54
2021/12/12 09:21:36;;;;;;;;;8.20;7.60;;;;;9.49;80.42;101929.94;4995897;28;45423;-56
2021/12/12 09:24:14;;;;;;;;;6.00;6.00;;;;;9.54;80.92;101943.97;4991417;28;45862;-60
2021/12/12 09:26:44;;;;;;;;;7.00;5.60;;;;;9.40;79.54;101904.44;4987160;28;46459;-58
2021/12/12 09:29:18;;;;;;;;;6.20;6.20;;;;;9.65;79.74;101939.16;4986520;28;45594;-57
2021/12/12 09:31:58;;;;;;;;;10.60;7.40;;;;;9.69;79.66;101941.38;4991342;28;45466;-56
2021/12/12 09:34:36;;;;;;;;;7.20;7.20;;;;;9.59;79.88;101914.16;4990604;28;46545;-53
2021/12/12 09:37:10;;;;;;;;;6.80;4.20;;;;;9.62;79.90;101911.06;4975880;28;45412;-57
2021/12/12 09:39:54;;;;;;;;;6.00;6.00;;;;;9.80;80.83;101936.53;4996581;28;45428;-56
2021/12/12 09:42:35;;;;;;;;;7.20;6.00;;;;;9.76;80.40;101934.16;4995825;28;45803;-56
2021/12/12 09:45:27;;;;;;;;;8.80;7.00;;;;;9.77;80.32;101941.34;4995513;28;47613;-57
2021/12/12 09:51:15;;;;;;;;;9.60;4.80;;;;;9.81;80.69;101938.25;4997812;28;45503;-58
2021/12/12 09:54:02;;;;;;;;;8.60;6.80;;;;;9.84;80.35;101935.16;4995603;28;45716;-59
2021/12/12 09:56:48;;;;;;;;;7.80;7.80;;;;;9.90;80.82;101937.19;5013462;28;46580;-62
2021/12/12 09:59:23;;;;;;;;;8.00;8.00;;;;;9.80;80.65;101909.09;4996148;28;45536;-58
2021/12/12 10:02:07;;;;;;;;;9.20;9.20;;;;;9.95;80.65;101943.00;5012116;28;45455;-61
2021/12/12 10:05:11;;;;;;;;;11.20;8.60;;;;;9.98;80.45;101942.63;5013650;28;45503;-59
2021/12/12 10:07:57;;;;;;;;;10.40;7.80;;;;;10.00;79.87;101946.06;5003169;28;45504;-55
2021/12/12 10:10:30;;;;;;;;;6.40;6.40;;;;;10.03;81.14;101944.81;4995295;28;45797;-62
2021/12/12 10:13:19;;;;;;;;;7.60;7.00;;;;;10.04;80.25;101939.16;5012193;28;45891;-54
2021/12/12 10:15:52;;;;;;;;;9.40;7.00;;;;;10.11;80.48;101950.28;5012875;28;45380;-59
2021/12/12 10:18:42;;;;;;;;;6.40;6.40;;;;;10.13;79.51;101937.22;4995146;28;46572;-61
2021/12/12 10:21:20;;;;;;;;;5.20;5.20;;;;;10.23;79.56;101942.50;4994234;28;45461;-55
2021/12/12 10:24:22;;;;;;;;;7.40;6.80;;;;;10.26;79.67;101942.13;4979903;28;45782;-63
2021/12/12 10:27:17;;;;;;;;;9.80;8.20;;;;;10.26;80.20;101950.34;4965828;28;48142;-63
2021/12/12 10:29:57;;;;;;;;;8.80;8.00;;;;;10.28;79.31;101947.44;5012640;28;46865;-58
2021/12/12 10:32:28;;;;;;;;;10.00;10.00;;;;;10.36;79.56;101952.88;4995014;28;45439;-58
2021/12/12 10:35:07;;;;;;;;;9.20;9.20;;;;;10.36;79.70;101944.63;4978826;28;45469;-55
2021/12/12 10:37:55;;;;;;;;;8.00;6.60;;;;;10.24;79.53;101918.66;5011929;28;45407;-56
2021/12/12 10:40:28;;;;;;;;;6.20;6.20;;;;;10.56;79.13;101955.19;4993107;28;45995;-54
2021/12/12 10:42:57;;;;;;;;;8.80;8.80;;;;;10.57;79.05;101940.44;4996886;28;45437;-63
2021/12/12 10:45:26;;;;;;;;;8.60;8.00;;;;;10.68;79.33;101956.47;4994392;28;45451;-56
2021/12/12 10:48:01;;;;;;;;;8.60;8.60;;;;;10.69;78.17;101955.44;5011131;28;45521;-60
2021/12/12 10:50:32;;;;;;;;;7.40;7.00;;;;;10.71;78.54;101949.75;5010464;28;45834;-62
2021/12/12 10:53:16;;;;;;;;;12.40;7.80;;;;;10.69;78.87;101951.84;5011533;28;45454;-52
2021/12/12 10:55:58;;;;;;;;;7.00;7.00;;;;;10.66;79.02;101953.06;5011128;28;45476;-52
2021/12/12 10:58:48;;;;;;;;;3.80;3.80;;;;;10.64;78.99;101943.28;4998412;28;45310;-60
2021/12/12 11:01:23;;;;;;;;;11.20;8.60;;;;;10.66;78.41;101953.06;4969916;28;46009;-55
2021/12/12 11:04:09;;;;;;;;;10.60;7.20;;;;;10.66;78.68;101950.31;4922199;28;45971;-55
2021/12/12 11:06:37;;;;;;;;;10.40;10.20;;;;;10.63;78.99;101945.19;4989900;28;45442;-50
2021/12/12 11:09:13;;;;;;;;;11.80;7.80;;;;;10.66;78.79;101958.56;4994251;28;45787;-56
2021/12/12 11:12:01;;;;;;;;;6.00;6.00;;;;;10.62;78.96;101954.44;4994504;28;47064;-54
2021/12/12 11:14:29;;;;;;;;;13.80;12.60;;;;;10.48;78.58;101923.16;4995867;28;45458;-51
2021/12/12 11:16:56;;;;;;;;;10.40;10.00;;;;;10.46;78.67;101921.63;5006138;28;45374;-58
2021/12/12 11:20:01;;;;;;;;;8.60;8.60;;;;;10.63;78.44;101956.19;4991660;28;45485;-52
2021/12/12 11:22:33;;;;;;;;;11.80;10.60;;;;;10.66;78.40;101957.69;5011238;28;46929;-58
2021/12/12 11:25:25;;;;;;;;;14.00;13.80;;;;;10.63;79.31;101952.56;5009637;28;45839;-54
2021/12/12 11:27:54;;;;;;;;;12.40;9.80;;;;;10.65;78.74;101959.59;4993415;28;45885;-55
2021/12/12 11:30:28;;;;;;;;;13.80;13.80;;;;;10.64;79.72;101949.66;4980246;28;45573;-60
2021/12/12 11:32:54;;;;;;;;;9.20;9.00;;;;;10.73;78.57;101963.31;5011038;28;45871;-54
2021/12/12 11:35:22;;;;;;;;;10.00;9.80;;;;;10.74;79.34;101951.28;4990093;28;45395;-55
2021/12/12 11:38:04;;;;;;;;;9.40;9.20;;;;;10.85;78.78;101951.69;4974208;28;45473;-55
2021/12/12 11:41:00;;;;;;;;;13.20;9.00;;;;;10.87;78.45;101951.53;4957115;28;45777;-56
2021/12/12 11:43:58;;;;;;;;;15.40;8.00;;;;;10.90;78.45;101958.53;4967026;28;46655;-53
2021/12/12 11:46:33;;;;;;;;;13.80;10.00;;;;;10.95;78.29;101951.44;5010833;28;45810;-60
2021/12/12 11:49:21;;;;;;;;;8.80;7.80;;;;;10.98;78.47;101955.72;5011262;28;45450;-59
2021/12/12 11:51:59;;;;;;;;;12.00;12.00;;;;;11.03;78.97;101955.16;4997847;28;45793;-61
2021/12/12 11:54:41;;;;;;;;;13.40;13.00;;;;;11.11;79.00;101953.19;5009191;28;45838;-57
2021/12/12 11:57:31;;;;;;;;;16.80;13.00;;;;;11.21;78.40;101952.94;5009927;28;45775;-58
2021/12/12 11:59:59;;;;;;;;;9.40;9.00;;;;;11.22;78.31;101956.56;4994965;28;45492;-53
2021/12/12 12:02:33;;;;;;;;;9.60;9.00;;;;;11.21;78.16;101950.19;4992640;28;45421;-53
2021/12/12 12:05:32;;;;;;;;;12.80;10.00;;;;;11.21;78.31;101950.19;5010275;28;46007;-59